Time;durP1;ratioP1;P1;durP2;ratioP2;P2;SDS_P1;SDS_P2;PMS_P1;PMS_P2;Temp;Humidity;BMP_temperature;BMP_pressure;BME280_temperature;BME280_humidity;BME280_pressure;Samples;Min_cycle;Max_cycle;Signal;HPM_P1;HPM_P2
2023/01/19 00:01:26;;;;;;;;;16.75;12.75;;;;;4.55;72.19;100062.25;5089723;27;45544;-61
2023/01/19 00:03:52;;;;;;;;;17.25;13.25;;;;;4.51;71.68;100065.94;5120981;27;45534;-67
2023/01/19 00:06:18;;;;;;;;;20.75;14.25;;;;;4.35;71.95;100065.69;5111245;27;45554;-62
2023/01/19 00:08:44;;;;;;;;;13.50;9.50;;;;;4.18;72.07;100044.44;5099880;27;47515;-60
2023/01/19 00:11:11;;;;;;;;;15.25;12.75;;;;;4.32;72.66;100078.97;5114399;27;45353;-63
2023/01/19 00:13:37;;;;;;;;;15.25;15.25;;;;;4.31;72.83;100082.53;5078215;28;45391;-62
2023/01/19 00:16:03;;;;;;;;;13.75;12.50;;;;;4.26;72.67;100087.94;5081392;27;45503;-64
2023/01/19 00:18:29;;;;;;;;;14.50;13.00;;;;;4.13;72.75;100081.44;5098980;27;45449;-65
2023/01/19 00:20:54;;;;;;;;;13.25;10.75;;;;;4.11;72.51;100078.88;5099753;27;45354;-67
2023/01/19 00:23:20;;;;;;;;;22.75;19.00;;;;;4.13;73.67;100086.69;5082130;27;45342;-64
2023/01/19 00:25:46;;;;;;;;;22.75;16.00;;;;;4.08;73.57;100083.41;5079396;27;45426;-64
2023/01/19 00:28:14;;;;;;;;;13.50;9.00;;;;;4.14;73.47;100084.00;5078923;27;45598;-69
2023/01/19 00:30:41;;;;;;;;;16.25;14.00;;;;;4.12;73.44;100088.47;5082661;27;45359;-68
2023/01/19 00:33:06;;;;;;;;;16.75;16.75;;;;;4.17;73.39;100080.44;5078664;27;45257;-71
2023/01/19 00:35:33;;;;;;;;;21.25;17.50;;;;;4.29;72.86;100086.97;5088975;27;45379;-70
2023/01/19 00:37:59;;;;;;;;;20.50;18.00;;;;;4.39;72.90;100083.94;5084219;27;46721;-71
2023/01/19 00:40:24;;;;;;;;;20.00;18.50;;;;;4.34;72.87;100074.50;5086962;27;45494;-70
2023/01/19 00:42:50;;;;;;;;;23.75;21.25;;;;;4.35;73.02;100086.75;5079839;27;45310;-62
2023/01/19 00:45:21;;;;;;;;;23.50;14.25;;;;;4.28;73.18;100090.53;5094005;27;45372;-61
2023/01/19 00:47:48;;;;;;;;;14.75;10.75;;;;;4.19;73.58;100090.91;5096224;27;45352;-66
2023/01/19 00:50:15;;;;;;;;;21.00;21.00;;;;;4.21;72.74;100099.59;5100302;27;45363;-61
2023/01/19 00:52:41;;;;;;;;;14.25;13.00;;;;;4.29;72.72;100098.34;5087295;27;45433;-65
2023/01/19 00:55:09;;;;;;;;;18.75;14.00;;;;;4.33;72.14;100092.09;5097374;27;45469;-70
2023/01/19 00:57:34;;;;;;;;;20.00;14.25;;;;;4.38;71.82;100097.16;5098441;27;45272;-69
2023/01/19 01:00:00;;;;;;;;;22.50;16.75;;;;;4.39;71.91;100098.88;5099270;27;45396;-67
2023/01/19 01:02:25;;;;;;;;;20.75;19.25;;;;;4.25;71.87;100106.44;5089506;27;45407;-69
2023/01/19 01:04:53;;;;;;;;;17.50;17.50;;;;;4.10;72.82;100111.38;5077477;27;45601;-69
2023/01/19 01:07:20;;;;;;;;;23.75;16.00;;;;;4.05;73.05;100115.94;5099424;27;48186;-64
2023/01/19 01:09:46;;;;;;;;;20.00;13.75;;;;;3.97;73.29;100117.13;5078399;27;45501;-62
2023/01/19 01:12:11;;;;;;;;;19.00;17.00;;;;;3.95;73.49;100118.97;5078328;27;45451;-65
2023/01/19 01:14:37;;;;;;;;;17.50;16.00;;;;;4.10;73.04;100119.25;5090201;27;45650;-62
2023/01/19 01:17:02;;;;;;;;;23.50;22.75;;;;;4.24;73.25;100125.78;5101494;27;46407;-61
2023/01/19 01:19:27;;;;;;;;;15.50;15.50;;;;;4.28;72.61;100128.22;5088686;27;45790;-60
2023/01/19 01:21:54;;;;;;;;;17.00;15.50;;;;;4.13;72.53;100124.41;5080789;27;45351;-61
2023/01/19 01:24:19;;;;;;;;;13.75;13.75;;;;;4.22;72.68;100130.25;5088961;27;45332;-60
2023/01/19 01:26:45;;;;;;;;;18.25;14.75;;;;;4.24;72.98;100131.03;5086530;27;45348;-64
2023/01/19 01:29:10;;;;;;;;;20.50;16.25;;;;;4.25;71.96;100135.38;5078229;27;45283;-68
2023/01/19 01:31:36;;;;;;;;;14.00;14.00;;;;;4.20;72.67;100135.56;5080557;27;45284;-60
2023/01/19 01:34:01;;;;;;;;;14.75;12.75;;;;;4.19;71.78;100133.84;5080797;27;45314;-62
2023/01/19 01:36:30;;;;;;;;;19.50;16.00;;;;;4.16;71.54;100133.94;5078148;27;46247;-60
2023/01/19 01:38:57;;;;;;;;;13.75;10.50;;;;;4.17;72.27;100150.59;5078254;27;45405;-69
2023/01/19 01:41:22;;;;;;;;;13.25;13.25;;;;;3.97;72.27;100133.78;5078960;27;45308;-65
2023/01/19 01:43:55;;;;;;;;;15.75;13.50;;;;;4.02;72.03;100147.63;5078267;27;45281;-65
2023/01/19 01:46:20;;;;;;;;;15.25;12.25;;;;;3.87;71.05;100142.91;5084592;27;45500;-61
2023/01/19 01:48:57;;;;;;;;;16.50;10.00;;;;;3.87;71.23;100142.06;5085096;27;45299;-62
2023/01/19 01:51:33;;;;;;;;;13.75;13.25;;;;;4.01;71.21;100172.22;5116943;27;45443;-63
2023/01/19 01:54:20;;;;;;;;;13.25;11.00;;;;;4.05;71.22;100165.09;5077946;27;45299;-73
2023/01/19 01:56:48;;;;;;;;;13.00;13.00;;;;;4.07;71.76;100166.75;5085538;27;46202;-70
2023/01/19 01:59:28;;;;;;;;;12.75;11.50;;;;;4.07;71.45;100166.75;5092107;27;45444;-71
2023/01/19 02:04:50;;;;;;;;;15.00;13.00;;;;;4.14;72.19;100162.09;5077684;27;45353;-67
2023/01/19 02:15:38;;;;;;;;;6.75;5.00;;;;;3.90;72.19;100141.94;5078127;27;45550;-71
2023/01/19 02:18:03;;;;;;;;;14.00;14.00;;;;;4.06;72.74;100178.19;5091063;27;47185;-73
2023/01/19 02:20:30;;;;;;;;;18.50;13.75;;;;;4.00;72.46;100172.28;5097789;27;45263;-68
2023/01/19 02:23:01;;;;;;;;;18.00;12.75;;;;;3.97;72.34;100183.78;5085123;27;45401;-72
2023/01/19 02:25:27;;;;;;;;;19.75;15.25;;;;;4.03;72.09;100175.63;5094770;27;45472;-71
2023/01/19 02:27:53;;;;;;;;;20.25;13.50;;;;;3.99;72.28;100171.41;5056950;27;46702;-73
2023/01/19 02:30:19;;;;;;;;;17.75;14.00;;;;;3.92;72.74;100167.31;5119559;27;45267;-71
2023/01/19 02:32:44;;;;;;;;;15.00;10.75;;;;;3.91;72.48;100181.38;5087679;27;45238;-70
2023/01/19 02:35:11;;;;;;;;;17.00;14.25;;;;;3.94;72.34;100186.50;5098389;27;45618;-68
2023/01/19 02:37:39;;;;;;;;;15.00;13.50;;;;;3.77;72.35;100157.28;5080513;27;45435;-71
2023/01/19 02:40:11;;;;;;;;;15.75;14.00;;;;;3.99;71.93;100168.78;5075370;28;45350;-62
2023/01/19 02:42:42;;;;;;;;;18.25;15.25;;;;;4.01;71.77;100177.47;5080618;27;45328;-64
2023/01/19 02:45:11;;;;;;;;;15.25;13.25;;;;;3.99;71.64;100184.56;5077127;27;45283;-67
2023/01/19 02:47:44;;;;;;;;;17.75;17.75;;;;;3.84;71.86;100161.44;5097138;27;45624;-68
2023/01/19 02:50:36;;;;;;;;;14.00;14.00;;;;;3.87;71.67;100179.75;5096193;27;45369;-65
2023/01/19 02:53:27;;;;;;;;;17.00;15.75;;;;;3.82;72.27;100173.78;5096761;27;45438;-65
2023/01/19 02:56:16;;;;;;;;;22.00;16.00;;;;;3.83;72.50;100178.13;5081223;27;45382;-69
2023/01/19 02:58:56;;;;;;;;;14.50;12.50;;;;;3.81;72.94;100182.59;5086832;27;46154;-64
2023/01/19 03:01:44;;;;;;;;;17.00;17.00;;;;;3.81;73.23;100166.81;5077006;28;45262;-65
2023/01/19 03:04:21;;;;;;;;;20.00;16.50;;;;;3.82;72.90;100160.63;5078396;27;45404;-69
2023/01/19 03:07:22;;;;;;;;;19.00;11.00;;;;;3.86;72.73;100167.50;5078697;27;45629;-65
2023/01/19 03:09:57;;;;;;;;;20.75;15.00;;;;;3.87;73.07;100174.47;5105395;27;45439;-66
2023/01/19 03:12:35;;;;;;;;;17.00;15.00;;;;;3.85;72.83;100182.44;5109988;27;45665;-61
2023/01/19 03:15:13;;;;;;;;;16.00;13.50;;;;;3.81;72.51;100172.06;5095647;27;45490;-62
2023/01/19 03:17:40;;;;;;;;;24.00;15.00;;;;;3.76;72.62;100171.34;5096003;27;45521;-65
2023/01/19 03:20:07;;;;;;;;;20.00;17.50;;;;;3.79;72.03;100181.78;5097384;27;46195;-63
2023/01/19 03:22:33;;;;;;;;;18.00;17.00;;;;;3.74;72.72;100170.56;5097237;27;45357;-65
2023/01/19 03:25:01;;;;;;;;;16.00;13.50;;;;;3.76;72.26;100172.22;5091589;27;45394;-65
2023/01/19 03:27:39;;;;;;;;;25.75;16.00;;;;;3.73;72.44;100163.59;5075776;27;45608;-64
2023/01/19 03:30:09;;;;;;;;;10.75;10.75;;;;;3.77;71.78;100170.44;5081336;27;45262;-68
2023/01/19 03:32:41;;;;;;;;;11.00;11.00;;;;;3.78;72.38;100169.56;5085439;27;45500;-64
2023/01/19 03:35:13;;;;;;;;;19.75;15.75;;;;;3.74;72.02;100171.41;5095521;27;45327;-65
2023/01/19 03:37:43;;;;;;;;;21.00;13.00;;;;;3.75;72.37;100177.53;5081655;27;45518;-65
2023/01/19 03:40:10;;;;;;;;;20.00;14.00;;;;;3.73;72.12;100171.47;5076534;27;45491;-63
2023/01/19 03:42:37;;;;;;;;;24.75;17.00;;;;;3.64;72.18;100166.53;5080736;27;45937;-59
2023/01/19 03:45:04;;;;;;;;;17.00;13.00;;;;;3.74;72.87;100183.72;5091691;27;45407;-64
2023/01/19 03:47:30;;;;;;;;;16.50;14.00;;;;;3.75;72.17;100172.28;5100321;27;45385;-61
2023/01/19 03:49:57;;;;;;;;;15.75;15.75;;;;;3.74;72.89;100184.56;5098832;27;46117;-60
2023/01/19 03:52:32;;;;;;;;;18.75;15.50;;;;;3.69;72.68;100183.03;5082366;27;45233;-63
2023/01/19 03:54:58;;;;;;;;;23.50;20.75;;;;;3.68;73.06;100186.56;5077143;27;45394;-63
2023/01/19 03:57:24;;;;;;;;;17.00;17.00;;;;;3.67;72.99;100190.09;5096690;27;45591;-67
2023/01/19 03:59:49;;;;;;;;;21.25;16.50;;;;;3.66;72.43;100188.41;5081105;27;46030;-67
2023/01/19 04:02:14;;;;;;;;;20.25;16.50;;;;;3.62;72.61;100178.88;5089652;27;45870;-65
2023/01/19 04:04:40;;;;;;;;;16.25;15.00;;;;;3.69;73.26;100181.25;5075907;27;45372;-61
2023/01/19 04:07:05;;;;;;;;;25.75;18.25;;;;;3.72;72.94;100188.16;5107462;27;45692;-64
2023/01/19 04:09:31;;;;;;;;;19.50;16.50;;;;;3.73;72.44;100195.16;5075875;27;45422;-71
2023/01/19 04:11:56;;;;;;;;;12.50;12.50;;;;;3.72;72.41;100180.28;5075665;27;45416;-67
2023/01/19 04:14:22;;;;;;;;;16.75;16.50;;;;;3.76;73.13;100181.88;5117041;27;45386;-69
2023/01/19 04:16:47;;;;;;;;;21.25;17.00;;;;;3.74;72.21;100189.81;5112986;27;45351;-71
2023/01/19 04:19:13;;;;;;;;;21.00;16.75;;;;;3.76;72.94;100187.13;5090414;27;45447;-64
2023/01/19 04:21:38;;;;;;;;;19.75;16.50;;;;;3.77;72.14;100194.13;5095774;27;45408;-68
2023/01/19 04:24:04;;;;;;;;;16.50;12.25;;;;;3.79;72.74;100181.78;5094019;27;45227;-69
2023/01/19 04:26:29;;;;;;;;;23.00;14.50;;;;;3.79;72.47;100190.53;5098937;27;45313;-62
2023/01/19 04:28:55;;;;;;;;;17.75;17.25;;;;;3.72;72.38;100175.88;5079071;27;45389;-59
2023/01/19 04:31:22;;;;;;;;;19.50;14.00;;;;;3.75;72.67;100188.06;5087796;27;45491;-67
2023/01/19 04:33:47;;;;;;;;;11.50;11.50;;;;;3.78;72.78;100185.34;5083609;27;45283;-62
2023/01/19 04:36:13;;;;;;;;;24.75;18.25;;;;;3.77;73.23;100186.22;5093750;27;45183;-67
2023/01/19 04:38:38;;;;;;;;;15.50;11.50;;;;;3.74;72.54;100173.19;5099010;27;46187;-66
2023/01/19 04:41:04;;;;;;;;;19.25;17.00;;;;;3.74;72.79;100183.72;5098839;27;45363;-70
2023/01/19 04:43:29;;;;;;;;;17.00;11.25;;;;;3.68;72.83;100173.41;5096370;27;45388;-69
2023/01/19 04:45:55;;;;;;;;;21.75;18.00;;;;;3.68;73.16;100178.66;5090336;27;45548;-64
2023/01/19 04:48:20;;;;;;;;;18.50;18.50;;;;;3.64;73.74;100185.78;5099035;27;46079;-71
2023/01/19 04:50:46;;;;;;;;;14.25;12.25;;;;;3.64;73.29;100177.03;5094599;27;45829;-65
2023/01/19 04:53:12;;;;;;;;;17.25;12.50;;;;;3.62;72.81;100184.13;5098221;27;45378;-67
2023/01/19 04:55:38;;;;;;;;;21.50;13.00;;;;;3.50;72.88;100170.47;5098758;27;46036;-65
2023/01/19 04:58:04;;;;;;;;;19.50;13.00;;;;;3.58;73.14;100182.53;5099203;27;45361;-70
2023/01/19 05:00:29;;;;;;;;;17.75;12.50;;;;;3.56;73.16;100169.44;5098478;27;45416;-66
2023/01/19 05:02:54;;;;;;;;;15.25;13.25;;;;;3.44;73.46;100154.94;5102091;27;45239;-61
2023/01/19 05:05:20;;;;;;;;;15.50;13.00;;;;;3.61;73.50;100183.28;5106672;27;45455;-65
2023/01/19 05:07:45;;;;;;;;;21.00;14.00;;;;;3.52;73.35;100158.16;5082711;27;46251;-63
2023/01/19 05:10:11;;;;;;;;;14.00;14.00;;;;;3.63;73.37;100177.94;5104532;27;45229;-61
2023/01/19 05:12:37;;;;;;;;;16.50;13.00;;;;;3.66;73.52;100175.25;5105603;27;45669;-63
2023/01/19 05:15:03;;;;;;;;;13.00;13.00;;;;;3.66;73.55;100177.88;5120928;27;45155;-66
2023/01/19 05:17:28;;;;;;;;;14.00;14.00;;;;;3.64;73.62;100177.03;5099927;27;45415;-61
2023/01/19 05:19:53;;;;;;;;;10.25;8.50;;;;;3.55;73.79;100184.34;5113603;27;45321;-70
2023/01/19 05:22:21;;;;;;;;;24.50;20.50;;;;;3.55;74.07;100192.22;5093637;27;45380;-65
2023/01/19 05:24:47;;;;;;;;;22.25;17.75;;;;;3.53;73.92;100177.44;5099946;27;45526;-64
2023/01/19 05:27:12;;;;;;;;;20.00;15.75;;;;;3.55;74.11;100186.97;5092235;27;45526;-61
2023/01/19 05:29:37;;;;;;;;;19.00;19.00;;;;;3.53;74.45;100185.31;5082927;27;45321;-63
2023/01/19 05:32:03;;;;;;;;;29.50;20.00;;;;;3.59;74.16;100184.25;5089245;27;45451;-61
2023/01/19 05:34:28;;;;;;;;;18.25;15.50;;;;;3.60;73.85;100185.94;5097471;27;45405;-64
2023/01/19 05:36:54;;;;;;;;;23.50;16.75;;;;;3.50;74.16;100183.63;5096439;27;46205;-60
2023/01/19 05:39:19;;;;;;;;;22.25;16.75;;;;;3.54;74.57;100190.53;5097295;27;45640;-64
2023/01/19 05:41:45;;;;;;;;;21.00;20.00;;;;;3.50;73.92;100174.88;5084078;27;45377;-62
2023/01/19 05:44:11;;;;;;;;;19.75;19.75;;;;;3.41;74.03;100167.31;5078103;27;45439;-63
2023/01/19 05:46:37;;;;;;;;;23.25;16.25;;;;;3.45;74.10;100161.91;5077548;27;45352;-66
2023/01/19 05:49:03;;;;;;;;;13.25;11.75;;;;;3.56;73.56;100185.22;5077917;27;45298;-69
2023/01/19 05:51:33;;;;;;;;;16.00;13.00;;;;;3.56;74.09;100185.22;5102854;27;45514;-70
2023/01/19 05:54:00;;;;;;;;;17.25;16.00;;;;;3.52;73.77;100189.72;5078077;27;45444;-69
2023/01/19 05:56:25;;;;;;;;;18.75;15.50;;;;;3.49;73.92;100183.69;5093048;27;45835;-67
2023/01/19 05:58:51;;;;;;;;;10.50;8.00;;;;;3.51;73.84;100187.97;5114346;27;45818;-67
2023/01/19 06:01:16;;;;;;;;;16.00;13.50;;;;;3.55;74.01;100194.88;5098660;27;45362;-65
2023/01/19 06:03:42;;;;;;;;;17.00;16.25;;;;;3.61;74.23;100198.19;5093028;27;45637;-68
2023/01/19 06:06:07;;;;;;;;;24.75;18.75;;;;;3.54;73.77;100181.78;5085512;27;45457;-65
2023/01/19 06:08:33;;;;;;;;;18.25;13.00;;;;;3.60;73.44;100196.47;5085875;27;45313;-64
2023/01/19 06:10:58;;;;;;;;;18.50;14.25;;;;;3.51;73.71;100193.22;5096154;27;45537;-67
2023/01/19 06:13:23;;;;;;;;;21.75;13.25;;;;;3.31;74.15;100166.75;5089877;27;45792;-62
2023/01/19 06:15:56;;;;;;;;;18.75;13.00;;;;;3.48;74.07;100198.59;5098152;27;46355;-70
2023/01/19 06:18:21;;;;;;;;;16.50;12.75;;;;;3.43;74.72;100195.28;5097802;27;45188;-64
2023/01/19 06:20:46;;;;;;;;;17.25;13.50;;;;;3.40;73.89;100184.00;5084942;27;45511;-67
2023/01/19 06:23:12;;;;;;;;;18.50;11.25;;;;;3.37;74.37;100187.56;5096598;27;45406;-65
2023/01/19 06:25:38;;;;;;;;;12.00;10.25;;;;;3.38;74.24;100197.19;5086147;27;46401;-65
2023/01/19 06:28:04;;;;;;;;;16.25;14.00;;;;;3.35;74.53;100202.53;5095891;27;45445;-65
2023/01/19 06:30:29;;;;;;;;;14.25;9.00;;;;;3.35;74.53;100207.78;5095151;27;45394;-66
2023/01/19 06:32:55;;;;;;;;;18.50;13.00;;;;;3.36;74.50;100209.50;5096251;27;45710;-62
2023/01/19 06:35:20;;;;;;;;;14.00;14.00;;;;;3.35;74.14;100207.78;5104646;27;45446;-61
2023/01/19 06:37:45;;;;;;;;;13.50;11.50;;;;;3.33;74.70;100212.25;5092798;27;45458;-64
2023/01/19 06:40:11;;;;;;;;;12.75;10.75;;;;;3.32;74.56;100217.56;5104045;27;45503;-60
2023/01/19 06:42:36;;;;;;;;;15.25;12.75;;;;;3.32;74.85;100226.31;5104632;27;45380;-65
2023/01/19 06:45:02;;;;;;;;;9.25;9.25;;;;;3.31;74.70;100221.09;5076910;27;45519;-68
2023/01/19 06:47:27;;;;;;;;;10.75;10.00;;;;;3.29;74.87;100215.91;5076960;27;45389;-67
2023/01/19 06:49:53;;;;;;;;;10.00;7.50;;;;;3.27;75.11;100207.19;5079025;27;45748;-63
2023/01/19 06:52:19;;;;;;;;;12.25;10.50;;;;;3.36;74.92;100212.13;5077200;27;45380;-62
2023/01/19 06:54:45;;;;;;;;;10.75;9.75;;;;;3.40;74.57;100224.28;5098605;27;45942;-66
2023/01/19 06:57:10;;;;;;;;;10.00;7.00;;;;;3.42;74.39;100214.59;5081559;27;45347;-58
2023/01/19 06:59:37;;;;;;;;;12.00;9.50;;;;;3.35;74.64;100210.44;5102599;27;45270;-69
2023/01/19 07:02:02;;;;;;;;;12.00;9.25;;;;;3.39;74.59;100219.94;5133458;27;45662;-56
2023/01/19 07:04:28;;;;;;;;;14.75;9.50;;;;;3.45;74.72;100229.41;5100325;27;45490;-61
2023/01/19 07:06:53;;;;;;;;;19.50;10.50;;;;;3.30;74.95;100214.13;5115231;27;45233;-62
2023/01/19 07:09:19;;;;;;;;;12.50;7.75;;;;;3.35;75.13;100223.56;5097368;27;45235;-59
2023/01/19 07:11:45;;;;;;;;;11.50;10.00;;;;;3.35;74.83;100227.97;5096500;27;45727;-59
2023/01/19 07:14:10;;;;;;;;;15.50;10.00;;;;;3.40;75.09;100232.19;5096986;27;45578;-59
2023/01/19 07:16:36;;;;;;;;;16.75;11.25;;;;;3.39;74.62;100219.94;5095854;27;45515;-64
2023/01/19 07:19:04;;;;;;;;;13.00;10.75;;;;;3.43;74.42;100224.19;5093829;27;45501;-58
2023/01/19 07:21:30;;;;;;;;;10.00;8.50;;;;;3.36;74.75;100201.63;5090863;27;45420;-58
2023/01/19 07:23:56;;;;;;;;;12.50;11.00;;;;;3.42;74.65;100218.97;5095536;27;46122;-56
2023/01/19 07:26:23;;;;;;;;;15.00;11.75;;;;;3.48;75.00;100219.63;5093181;27;45562;-60
2023/01/19 07:28:51;;;;;;;;;12.50;11.25;;;;;3.53;74.63;100217.72;5112680;27;45241;-58
2023/01/19 07:31:17;;;;;;;;;13.00;13.00;;;;;3.54;74.38;100219.44;5100517;27;45763;-61
2023/01/19 07:33:42;;;;;;;;;10.25;10.25;;;;;3.58;74.31;100224.59;5096158;27;45484;-60
2023/01/19 07:36:08;;;;;;;;;9.75;8.75;;;;;3.54;73.98;100219.44;5084358;27;45602;-58
2023/01/19 07:38:34;;;;;;;;;10.25;10.25;;;;;3.54;74.38;100214.19;5094898;27;45323;-61
2023/01/19 07:41:08;;;;;;;;;7.25;7.25;;;;;3.58;74.53;100220.19;5079973;27;45421;-63
2023/01/19 07:43:34;;;;;;;;;10.00;8.25;;;;;3.63;74.38;100220.03;5093277;27;45480;-61
2023/01/19 07:46:01;;;;;;;;;9.75;9.25;;;;;3.71;74.33;100232.03;5085814;27;45402;-63
2023/01/19 07:48:27;;;;;;;;;13.00;11.00;;;;;3.73;74.27;100231.97;5098807;27;45315;-62
2023/01/19 07:50:53;;;;;;;;;10.00;8.50;;;;;3.72;73.55;100238.13;5090843;27;45465;-61
2023/01/19 07:53:19;;;;;;;;;12.50;7.25;;;;;3.74;73.58;100241.56;5080840;27;46028;-66
2023/01/19 07:55:44;;;;;;;;;10.00;10.00;;;;;3.72;74.11;100239.00;5077617;27;45517;-69
2023/01/19 07:58:10;;;;;;;;;7.75;5.00;;;;;3.68;74.00;100221.59;5084475;27;45471;-63
2023/01/19 08:00:37;;;;;;;;;8.50;8.50;;;;;3.78;73.25;100248.47;5110779;27;45603;-64
2023/01/19 08:03:04;;;;;;;;;8.00;5.00;;;;;3.77;73.70;100236.19;5095037;27;45485;-60
2023/01/19 08:05:31;;;;;;;;;16.25;10.00;;;;;3.74;73.71;100229.28;5078207;27;45410;-61
2023/01/19 08:07:57;;;;;;;;;11.00;10.00;;;;;3.82;73.38;100245.66;5081688;27;45321;-63
2023/01/19 08:10:25;;;;;;;;;18.25;13.50;;;;;3.84;74.39;100256.13;5080766;27;45235;-60
2023/01/19 08:12:55;;;;;;;;;44.75;32.25;;;;;3.78;74.53;100222.16;5079629;27;46101;-63
2023/01/19 08:15:23;;;;;;;;;13.00;13.00;;;;;3.84;74.04;100240.34;5079297;27;45306;-62
2023/01/19 08:17:59;;;;;;;;;11.50;11.00;;;;;3.91;73.52;100249.78;5088711;27;45448;-62
2023/01/19 08:20:26;;;;;;;;;16.50;14.00;;;;;3.86;73.56;100251.69;5096944;27;45493;-64
2023/01/19 08:22:58;;;;;;;;;21.25;17.00;;;;;3.86;73.59;100251.69;5083606;27;46059;-62
2023/01/19 08:25:30;;;;;;;;;21.50;13.00;;;;;3.88;73.31;100251.63;5080267;27;45377;-65
2023/01/19 08:27:56;;;;;;;;;18.00;16.75;;;;;3.88;73.03;100259.50;5089282;27;45330;-62
2023/01/19 08:30:23;;;;;;;;;23.00;13.25;;;;;3.69;73.05;100233.00;5093824;27;45370;-58
2023/01/19 08:32:49;;;;;;;;;16.00;13.50;;;;;3.84;73.23;100256.13;5093181;27;46739;-64
2023/01/19 08:35:14;;;;;;;;;13.50;8.50;;;;;3.82;73.75;100260.59;5093563;27;45933;-64
2023/01/19 08:37:39;;;;;;;;;15.75;15.75;;;;;3.86;72.72;100254.31;5082751;27;46191;-61
2023/01/19 08:40:06;;;;;;;;;19.50;12.50;;;;;3.92;73.00;100254.13;5090300;27;45579;-62
2023/01/19 08:42:31;;;;;;;;;16.25;11.00;;;;;3.91;73.60;100252.41;5088826;27;45611;-60
2023/01/19 08:44:57;;;;;;;;;15.75;13.00;;;;;3.94;73.08;100260.19;5091936;27;45490;-59
2023/01/19 08:47:22;;;;;;;;;16.00;11.00;;;;;3.87;72.67;100242.88;5093202;27;50974;-64
2023/01/19 08:49:48;;;;;;;;;14.75;10.00;;;;;3.97;72.54;100270.59;5082031;27;45271;-60
2023/01/19 08:52:13;;;;;;;;;16.00;13.75;;;;;3.93;72.19;100247.09;5110504;27;45471;-60
2023/01/19 08:54:39;;;;;;;;;10.00;10.00;;;;;3.98;72.52;100258.28;5099312;27;45328;-59
2023/01/19 08:57:04;;;;;;;;;11.50;11.50;;;;;4.07;72.54;100264.09;5080455;27;45436;-60
2023/01/19 08:59:29;;;;;;;;;13.50;11.25;;;;;4.17;72.73;100267.28;5087861;27;45514;-59
2023/01/19 09:01:58;;;;;;;;;13.00;11.00;;;;;4.23;71.20;100246.00;5098911;27;45633;-60
2023/01/19 09:04:23;;;;;;;;;14.75;11.75;;;;;4.38;71.78;100260.38;5098468;27;45365;-57
2023/01/19 09:06:49;;;;;;;;;14.00;14.00;;;;;4.49;71.09;100268.75;5097754;27;46649;-61
2023/01/19 09:09:15;;;;;;;;;17.50;16.50;;;;;4.54;71.07;100265.94;5098493;27;45358;-61
2023/01/19 09:11:41;;;;;;;;;23.75;18.50;;;;;4.40;70.29;100245.38;5109704;27;45879;-61
2023/01/19 09:14:07;;;;;;;;;13.50;13.50;;;;;4.50;70.39;100275.75;5098054;27;45439;-61
2023/01/19 09:16:33;;;;;;;;;14.75;14.75;;;;;4.53;71.47;100269.50;5105204;27;45546;-59
2023/01/19 09:18:58;;;;;;;;;24.25;15.75;;;;;4.51;71.50;100272.19;5112539;27;45587;-60
2023/01/19 09:21:24;;;;;;;;;22.50;15.00;;;;;4.56;71.55;100265.00;5114084;27;45377;-62
2023/01/19 09:23:49;;;;;;;;;19.00;17.50;;;;;4.64;71.06;100262.94;5097373;27;45517;-61
2023/01/19 09:26:15;;;;;;;;;21.75;20.50;;;;;4.63;71.11;100263.84;5114173;27;45366;-62
2023/01/19 09:28:40;;;;;;;;;21.25;15.50;;;;;4.56;71.40;100254.47;5098961;27;45177;-64
2023/01/19 09:31:07;;;;;;;;;26.75;21.50;;;;;4.66;70.76;100265.50;5099347;27;45890;-60
2023/01/19 09:33:33;;;;;;;;;22.50;16.00;;;;;4.66;70.79;100269.00;5096741;27;45984;-62
2023/01/19 09:35:59;;;;;;;;;26.00;22.75;;;;;4.68;70.62;100267.16;5098455;27;45714;-61
2023/01/19 09:38:25;;;;;;;;;22.00;19.75;;;;;4.65;71.16;100275.19;5098405;27;45550;-61
2023/01/19 09:40:54;;;;;;;;;25.75;18.25;;;;;4.60;70.52;100256.06;5097899;27;45447;-60
2023/01/19 09:43:40;;;;;;;;;24.25;20.50;;;;;4.65;70.47;100275.19;5098247;27;45413;-60
2023/01/19 09:46:12;;;;;;;;;24.00;17.00;;;;;4.63;70.17;100265.63;5096844;27;45272;-62
2023/01/19 09:49:03;;;;;;;;;26.50;23.50;;;;;4.74;70.76;100268.72;5098179;27;45381;-60
2023/01/19 09:51:35;;;;;;;;;28.50;22.00;;;;;4.71;70.58;100267.06;5077783;28;45288;-60
2023/01/19 09:54:15;;;;;;;;;24.00;22.50;;;;;4.77;69.92;100280.91;5076390;27;45290;-61
2023/01/19 09:56:43;;;;;;;;;31.25;24.00;;;;;4.74;70.32;100272.22;5077535;27;45414;-61
2023/01/19 09:59:24;;;;;;;;;27.00;23.00;;;;;4.72;69.92;100271.41;5083801;27;45432;-61
2023/01/19 10:01:55;;;;;;;;;33.75;24.75;;;;;4.76;70.16;100272.16;5097759;27;45341;-64
2023/01/19 10:04:28;;;;;;;;;24.75;23.50;;;;;4.83;69.52;100272.81;5098429;27;45311;-61
2023/01/19 10:07:01;;;;;;;;;31.00;26.00;;;;;4.74;69.15;100268.72;5089510;27;45456;-59
2023/01/19 10:10:01;;;;;;;;;23.25;21.25;;;;;4.78;69.72;100282.63;5090977;27;45308;-63
2023/01/19 10:12:36;;;;;;;;;32.25;23.00;;;;;4.83;70.25;100272.81;5097120;27;46341;-60
2023/01/19 10:15:10;;;;;;;;;34.50;24.75;;;;;4.91;69.42;100276.84;5097838;27;45183;-61
2023/01/19 10:18:03;;;;;;;;;24.25;21.50;;;;;4.87;69.83;100284.94;5097592;27;45387;-61
2023/01/19 10:20:34;;;;;;;;;32.75;24.75;;;;;4.84;68.96;100279.78;5093729;27;45577;-61
2023/01/19 10:23:04;;;;;;;;;24.50;22.75;;;;;4.81;69.63;100274.59;5095696;27;47473;-61
2023/01/19 10:25:30;;;;;;;;;22.25;17.00;;;;;4.89;68.82;100281.31;5112399;27;45424;-60
2023/01/19 10:27:59;;;;;;;;;21.00;19.50;;;;;4.85;69.07;100271.81;5097561;27;45168;-61
2023/01/19 10:30:27;;;;;;;;;30.50;23.75;;;;;4.88;69.59;100278.75;5097128;27;45480;-61
2023/01/19 10:32:54;;;;;;;;;24.25;22.75;;;;;4.88;69.57;100273.47;5081873;27;46974;-62
2023/01/19 10:35:23;;;;;;;;;30.00;24.00;;;;;4.92;69.77;100261.91;5076942;27;45338;-60
2023/01/19 10:38:00;;;;;;;;;26.50;20.50;;;;;4.98;69.38;100272.22;5077027;27;45500;-61
2023/01/19 10:41:03;;;;;;;;;27.75;22.25;;;;;5.07;69.05;100263.94;5075625;28;45535;-60
2023/01/19 10:43:38;;;;;;;;;26.00;21.50;;;;;5.16;68.78;100258.31;5070014;27;45500;-62
2023/01/19 10:46:06;;;;;;;;;26.00;21.00;;;;;5.18;69.26;100268.78;5075618;28;45343;-62
2023/01/19 10:48:41;;;;;;;;;26.50;22.00;;;;;5.22;68.66;100255.44;5076932;27;45831;-60
2023/01/19 10:51:09;;;;;;;;;28.00;20.50;;;;;5.29;68.47;100249.00;5077079;27;45899;-60
2023/01/19 10:53:35;;;;;;;;;37.75;33.50;;;;;5.32;68.78;100246.22;5076742;27;46107;-60
2023/01/19 10:56:20;;;;;;;;;28.50;24.00;;;;;5.32;67.78;100250.66;5076935;27;45373;-61
2023/01/19 10:58:45;;;;;;;;;28.75;28.50;;;;;5.31;68.21;100239.25;5078744;27;45390;-62
2023/01/19 11:01:29;;;;;;;;;28.00;25.50;;;;;5.36;68.07;100248.78;5097758;27;45325;-61
2023/01/19 11:04:04;;;;;;;;;21.75;21.75;;;;;5.41;67.90;100244.16;5081288;27;46280;-61
2023/01/19 11:06:31;;;;;;;;;29.00;25.25;;;;;5.37;67.04;100238.16;5092835;27;45555;-61
2023/01/19 11:09:16;;;;;;;;;33.25;27.75;;;;;5.41;67.90;100236.25;5086727;27;45422;-60
2023/01/19 11:11:45;;;;;;;;;26.75;25.00;;;;;5.49;67.96;100242.94;5094267;27;45365;-62
2023/01/19 11:14:13;;;;;;;;;30.00;21.00;;;;;5.49;68.72;100227.13;5090135;27;45494;-62
2023/01/19 11:16:40;;;;;;;;;22.75;18.25;;;;;5.55;67.61;100226.84;5094010;27;45367;-59
2023/01/19 11:19:17;;;;;;;;;33.25;26.00;;;;;5.55;68.59;100241.81;5094245;27;45448;-60
2023/01/19 11:21:43;;;;;;;;;31.50;27.00;;;;;5.60;67.60;100239.88;5079822;27;45557;-61
2023/01/19 11:24:13;;;;;;;;;40.75;24.75;;;;;5.64;67.81;100233.53;5080535;27;47725;-59
2023/01/19 11:26:43;;;;;;;;;31.00;25.25;;;;;5.71;67.43;100232.34;5078169;27;45483;-60
2023/01/19 11:29:19;;;;;;;;;31.75;26.25;;;;;5.68;67.41;100227.19;5076401;27;45334;-59
2023/01/19 11:31:44;;;;;;;;;30.25;27.25;;;;;5.74;67.30;100216.41;5114831;27;45615;-61
2023/01/19 11:34:37;;;;;;;;;30.50;26.00;;;;;5.75;67.41;100227.81;5117018;27;45281;-62
2023/01/19 11:37:04;;;;;;;;;23.25;20.50;;;;;5.74;67.19;100226.97;5090716;27;45538;-60